Orbital elements of COSMOS 2251 DEB
| Launched | 15 June 1993 |
| Flight ended | – |
| Launch site | Plesetsk Missile and Space Complex, Russia |
| Owner | Commonwealth of Independent States (former USSR) |
| NORAD ID | 37959 |
| Date fetched |
Epoch osculation |
Inc. [°] |
Ecc. | RA asc node [hr] |
Arg Peri. [°] |
Mean anom [°] |
Mean motion [rev/day] |
Abs. mag |
| Date fetched |
Epoch osculation |
Inc. [°] |
Ecc. | RA asc node [hr] |
Arg Peri. [°] |
Mean anom [°] |
Mean motion [rev/day] |
Abs. mag |
| 2026 May 07 17:58 | 2026 May 04 11:53:45 | 74.0065 | 0.00592 | 9.6460 | 251.1672 | 262.0180 | 14.58996 | – |
| 2026 May 06 17:57 | 2026 May 04 11:53:45 | 74.0065 | 0.00592 | 9.6460 | 251.1672 | 262.0180 | 14.58996 | – |
| 2026 May 05 17:57 | 2026 May 04 11:53:45 | 74.0065 | 0.00592 | 9.6460 | 251.1672 | 262.0180 | 14.58996 | – |
| 2026 May 04 17:57 | 2026 Apr 30 12:26:55 | 74.0080 | 0.00592 | 10.1520 | 259.5261 | 262.0180 | 14.58996 | – |
| 2026 May 03 17:57 | 2026 Apr 30 12:26:55 | 74.0080 | 0.00592 | 10.1520 | 259.5261 | 262.0180 | 14.58996 | – |
| 2026 May 02 17:57 | 2026 Apr 30 12:26:55 | 74.0080 | 0.00592 | 10.1520 | 259.5261 | 262.0180 | 14.58996 | – |
| 2026 May 01 17:56 | 2026 Apr 30 12:26:55 | 74.0080 | 0.00592 | 10.1520 | 259.5261 | 262.0180 | 14.58996 | – |
| 2026 Apr 30 17:56 | 2026 Apr 30 12:26:55 | 74.0080 | 0.00592 | 10.1520 | 259.5261 | 262.0180 | 14.58996 | – |
| 2026 Apr 29 17:57 | 2026 Apr 24 02:50:39 | 74.0086 | 0.00592 | 10.9662 | 273.0648 | 262.0180 | 14.58996 | – |
| 2026 Apr 28 17:56 | 2026 Apr 24 02:50:39 | 74.0086 | 0.00592 | 10.9662 | 273.0648 | 262.0180 | 14.58996 | – |
| 2026 Apr 27 17:58 | 2026 Apr 24 02:50:39 | 74.0086 | 0.00592 | 10.9662 | 273.0648 | 262.0180 | 14.58996 | – |
| 2026 Apr 26 17:58 | 2026 Apr 24 02:50:39 | 74.0086 | 0.00592 | 10.9662 | 273.0648 | 262.0180 | 14.58996 | – |
| 2026 Apr 25 17:58 | 2026 Apr 24 02:50:39 | 74.0086 | 0.00592 | 10.9662 | 273.0648 | 262.0180 | 14.58996 | – |
| 2026 Apr 24 17:59 | 2026 Apr 24 02:50:39 | 74.0086 | 0.00592 | 10.9662 | 273.0648 | 262.0180 | 14.58996 | – |
| 2026 Apr 23 17:57 | 2026 Apr 19 10:52:32 | 74.0096 | 0.00591 | 11.5596 | 282.9133 | 262.0180 | 14.58996 | – |
| 2026 Apr 22 17:57 | 2026 Apr 19 10:52:32 | 74.0096 | 0.00591 | 11.5596 | 282.9133 | 262.0180 | 14.58996 | – |
| 2026 Apr 21 17:57 | 2026 Apr 19 10:52:32 | 74.0096 | 0.00591 | 11.5596 | 282.9133 | 262.0180 | 14.58996 | – |
| 2026 Apr 20 17:57 | 2026 Apr 19 10:52:32 | 74.0096 | 0.00591 | 11.5596 | 282.9133 | 262.0180 | 14.58996 | – |
| 2026 Apr 19 17:58 | 2026 Apr 19 10:52:32 | 74.0096 | 0.00591 | 11.5596 | 282.9133 | 262.0180 | 14.58996 | – |
| 2026 Apr 18 17:56 | 2026 Apr 13 05:11:04 | 74.0104 | 0.00588 | 12.3530 | 296.1341 | 262.0180 | 14.58996 | – |
| 2026 Apr 16 17:57 | 2026 Apr 13 05:11:04 | 74.0104 | 0.00588 | 12.3530 | 296.1341 | 262.0180 | 14.58996 | – |
| 2026 Apr 14 17:57 | 2026 Apr 13 05:11:04 | 74.0104 | 0.00588 | 12.3530 | 296.1341 | 262.0180 | 14.58996 | – |
| 2026 Apr 13 17:57 | 2026 Apr 13 05:11:04 | 74.0104 | 0.00588 | 12.3530 | 296.1341 | 262.0180 | 14.58996 | – |
| 2026 Apr 12 17:57 | 2026 Apr 08 13:11:25 | 74.0106 | 0.00586 | 12.9465 | 306.0374 | 262.0180 | 14.58996 | – |
| 2026 Apr 11 17:57 | 2026 Apr 08 13:11:25 | 74.0106 | 0.00586 | 12.9465 | 306.0374 | 262.0180 | 14.58996 | – |
| 2026 Apr 10 17:58 | 2026 Apr 08 13:11:25 | 74.0106 | 0.00586 | 12.9465 | 306.0374 | 262.0180 | 14.58996 | – |